Lakeland, FL

5:37 PM EST on March 03, 2015 (GMT -0500)
Cleveland Heights | Change Station
CLOSE
Current Station
Personal Weather Station
Location: Lakeland, FL
Elevation: 145 ft
Nearby Weather Stations

Elev 145 ft 28.01 °N, 81.95 °W | Updated 12 minutes ago

Partly Cloudy
Partly Cloudy
82.0 °F
Feels Like 84 °F
N
4.7
Wind Variable Wind from East

Today
High -- | Low -- °F
--% Chance of Precip.
Yesterday
High -- | Low -- °F
Precip. -- in
6:50 AM 6:29 PM
Waxing Gibbous, 97% visible
Pressure 30.11 in
Visibility 12.0 miles
Clouds Scattered Clouds 4800 ft
Heat Index 84 °F
Dew Point 66 °F
Humidity 58%
Rainfall 0.00 in
Snow Depth Not available.
UV 1 out of 12
Pollen 9.20 out of 12
Air Quality Not available.
Flu Activity Not available.
METAR KLAL 032156Z 14010G14KT 12SM SCT048 27/18 A3011

More Conditions Fewer Conditions

Pressure 30.11 in
Visibility 12.0 miles
Clouds Scattered Clouds 4800 ft
Heat Index 84 °F
Dew Point 66 °F
Humidity 58%
Rainfall 0.00 in
Snow Depth Not available.
UV 1 out of 12
Pollen 9.20 out of 12
Air Quality Not available.
Flu Activity Not available.
METAR KLAL 032156Z 14010G14KT 12SM SCT048 27/18 A3011

More Conditions Fewer Conditions

10-Day Weather Forecast

Almanac

Astronomy

Mar. 03, 2015 Rise Set
Actual Time
Civil Twilight
Nautical Twilight
Astronomical Twilight
Moon
Length of Visible Light
Length of Day
Tomorrow will be .
, % of the Moon is Illuminated

Today's Extremes

State Highs State Lows

Community

WunderPhotos

Upload Photos

1,802,297 photos uploaded!

WunderBlogs® & News

Nearby

Air Quality

  Air Quality AQ Index Pollutant
Not available.

Snow Depth

Station Depth Elevation

Earthquake Activity

City Distance Mag. Time & Date
Minimum magnitude displayed is 2.5.

Coastal Water Temperatures

Place Temperature

Nearby Weather Stations